Time;durP1;ratioP1;P1;durP2;ratioP2;P2;SDS_P1;SDS_P2;PMS_P1;PMS_P2;Temp;Humidity;BMP_temperature;BMP_pressure;BME280_temperature;BME280_humidity;BME280_pressure;Samples;Min_cycle;Max_cycle;Signal;HPM_P1;HPM_P2
2022/01/08 00:00:12;;;;;;;32.88;21.45;;;;;;;;;;6219431;23;20004;-77
2022/01/08 00:02:38;;;;;;;22.65;15.23;;;;;;;;;;6219506;23;20005;-81
2022/01/08 00:05:06;;;;;;;23.00;16.92;;;;;;;;;;6246369;23;20071;-76
2022/01/08 00:07:33;;;;;;;28.27;20.88;;;;;;;;;;6246737;23;20026;-78
2022/01/08 00:10:04;;;;;;;20.20;14.75;;;;;;;;;;6246324;23;20007;-81
2022/01/08 00:12:33;;;;;;;35.08;23.60;;;;;;;;;;6219547;23;20024;-79
2022/01/08 00:15:02;;;;;;;33.95;22.27;;;;;;;;;;6219307;23;20004;-80
2022/01/08 00:17:28;;;;;;;32.35;22.23;;;;;;;;;;6246686;23;20001;-77
2022/01/08 00:19:54;;;;;;;28.33;22.90;;;;;;;;;;6246204;23;20392;-78
2022/01/08 00:22:20;;;;;;;26.90;20.90;;;;;;;;;;6246581;23;20007;-78
2022/01/08 00:24:52;;;;;;;29.77;23.10;;;;;;;;;;6246454;23;20011;-79
2022/01/08 00:27:22;;;;;;;21.80;15.52;;;;;;;;;;6246554;23;20000;-77
2022/01/08 00:29:48;;;;;;;19.95;15.30;;;;;;;;;;6219343;23;20012;-77
2022/01/08 00:32:14;;;;;;;21.13;14.90;;;;;;;;;;6246265;23;20078;-76
2022/01/08 00:34:41;;;;;;;20.65;15.27;;;;;;;;;;6246412;23;20005;-80
2022/01/08 00:37:07;;;;;;;26.33;17.80;;;;;;;;;;6246272;23;20008;-76
2022/01/08 00:39:34;;;;;;;23.80;18.50;;;;;;;;;;6246048;23;20073;-78
2022/01/08 00:42:00;;;;;;;26.50;21.35;;;;;;;;;;6219176;23;20011;-77
2022/01/08 00:44:26;;;;;;;24.80;18.83;;;;;;;;;;6246676;23;19996;-79
2022/01/08 00:46:52;;;;;;;23.13;17.30;;;;;;;;;;6246172;23;20003;-75
2022/01/08 00:49:19;;;;;;;20.38;16.83;;;;;;;;;;6246422;23;20010;-79
2022/01/08 00:51:45;;;;;;;23.92;17.20;;;;;;;;;;6246212;23;20063;-79
2022/01/08 00:54:11;;;;;;;23.55;17.17;;;;;;;;;;6245836;23;20003;-75
2022/01/08 00:56:37;;;;;;;24.63;17.17;;;;;;;;;;6246346;23;20000;-78
2022/01/08 00:59:06;;;;;;;21.40;16.02;;;;;;;;;;6245978;23;20000;-78
2022/01/08 01:01:32;;;;;;;22.42;16.48;;;;;;;;;;6246320;23;20000;-78
2022/01/08 01:03:58;;;;;;;24.02;17.40;;;;;;;;;;6219134;23;20382;-76
2022/01/08 01:06:24;;;;;;;26.10;19.17;;;;;;;;;;6218330;23;20012;-78
2022/01/08 01:08:50;;;;;;;26.58;18.17;;;;;;;;;;6219532;23;20004;-77
2022/01/08 01:11:16;;;;;;;24.38;16.92;;;;;;;;;;6247333;23;20316;-78
2022/01/08 01:13:43;;;;;;;23.92;16.58;;;;;;;;;;6246302;23;20000;-79
2022/01/08 01:16:09;;;;;;;21.13;14.57;;;;;;;;;;6245777;23;20067;-79
2022/01/08 01:18:37;;;;;;;20.90;15.18;;;;;;;;;;6219201;23;20000;-77
2022/01/08 01:21:03;;;;;;;18.92;13.65;;;;;;;;;;6218883;23;20004;-75
2022/01/08 01:23:35;;;;;;;20.25;14.93;;;;;;;;;;6246839;23;20070;-81
2022/01/08 01:26:07;;;;;;;20.80;14.80;;;;;;;;;;6246258;23;20007;-77
2022/01/08 01:47:04;;;;;;;23.77;14.85;;;;;;;;;;6225382;23;20004;-79
2022/01/08 01:49:30;;;;;;;33.22;18.83;;;;;;;;;;6215627;23;20050;-76
2022/01/08 01:52:00;;;;;;;65.22;41.58;;;;;;;;;;6215119;23;19996;-79
2022/01/08 01:54:29;;;;;;;33.38;21.60;;;;;;;;;;6215177;23;20004;-78
2022/01/08 01:56:57;;;;;;;35.13;25.65;;;;;;;;;;6214979;23;19996;-80
2022/01/08 01:59:23;;;;;;;25.92;18.23;;;;;;;;;;6215437;23;20444;-76
2022/01/08 02:01:50;;;;;;;27.13;15.93;;;;;;;;;;6214971;23;20001;-75
2022/01/08 02:04:16;;;;;;;25.70;17.52;;;;;;;;;;6215196;23;20043;-78
2022/01/08 02:06:42;;;;;;;25.40;17.85;;;;;;;;;;6213275;23;20000;-79
2022/01/08 02:09:08;;;;;;;28.38;18.58;;;;;;;;;;6215016;23;20427;-80
2022/01/08 02:11:34;;;;;;;25.80;18.25;;;;;;;;;;6213743;23;20007;-79
2022/01/08 02:14:19;;;;;;;26.25;19.00;;;;;;;;;;6213464;23;20075;-77
2022/01/08 02:16:45;;;;;;;30.60;23.38;;;;;;;;;;6213343;23;20393;-80
2022/01/08 02:19:11;;;;;;;34.97;25.10;;;;;;;;;;6213967;23;20001;-79
2022/01/08 02:21:37;;;;;;;29.40;23.35;;;;;;;;;;6213453;23;20004;-77
2022/01/08 02:24:04;;;;;;;26.13;18.50;;;;;;;;;;6214027;23;20068;-80
2022/01/08 02:26:30;;;;;;;23.42;16.40;;;;;;;;;;6215299;23;20432;-77
2022/01/08 02:28:58;;;;;;;25.55;18.73;;;;;;;;;;6213944;23;20005;-81
2022/01/08 02:31:25;;;;;;;25.95;19.30;;;;;;;;;;6215531;23;20371;-77
2022/01/08 02:33:52;;;;;;;25.17;18.42;;;;;;;;;;6215717;23;20005;-82
2022/01/08 02:36:19;;;;;;;21.65;16.75;;;;;;;;;;6216008;23;20000;-78
2022/01/08 02:38:45;;;;;;;21.95;15.48;;;;;;;;;;6230488;23;20095;-78
2022/01/08 02:41:12;;;;;;;17.38;13.57;;;;;;;;;;6246417;23;20000;-78
2022/01/08 02:43:44;;;;;;;18.55;13.15;;;;;;;;;;6218659;23;20336;-80
2022/01/08 02:46:10;;;;;;;19.55;13.57;;;;;;;;;;6246376;23;20004;-77
2022/01/08 02:48:36;;;;;;;18.63;15.15;;;;;;;;;;6246061;23;20006;-82
2022/01/08 02:51:03;;;;;;;21.05;15.98;;;;;;;;;;6246562;23;20451;-80
2022/01/08 02:53:29;;;;;;;20.60;14.65;;;;;;;;;;6219147;23;20011;-75
2022/01/08 02:55:55;;;;;;;20.08;15.15;;;;;;;;;;6219846;23;20008;-75
2022/01/08 02:58:25;;;;;;;20.13;13.88;;;;;;;;;;6219347;23;20417;-80
2022/01/08 03:00:52;;;;;;;22.25;14.68;;;;;;;;;;6220629;23;20004;-79
2022/01/08 03:03:18;;;;;;;17.95;14.30;;;;;;;;;;6247817;23;20031;-81
2022/01/08 03:05:44;;;;;;;18.73;14.35;;;;;;;;;;6249022;23;20004;-77
2022/01/08 03:08:10;;;;;;;19.67;14.45;;;;;;;;;;6247779;23;20032;-78
2022/01/08 03:10:36;;;;;;;18.75;12.85;;;;;;;;;;6247470;23;20004;-81
2022/01/08 03:13:04;;;;;;;16.25;12.00;;;;;;;;;;6221777;23;20011;-77
2022/01/08 03:15:35;;;;;;;16.35;12.25;;;;;;;;;;6248946;23;20436;-77
2022/01/08 03:18:01;;;;;;;16.52;12.60;;;;;;;;;;6247985;23;20000;-78
2022/01/08 03:20:27;;;;;;;19.05;13.02;;;;;;;;;;6248739;23;20428;-75
2022/01/08 03:23:01;;;;;;;17.58;13.32;;;;;;;;;;6248734;23;20000;-78
2022/01/08 03:25:27;;;;;;;17.27;12.68;;;;;;;;;;6250042;23;20012;-81
2022/01/08 03:27:53;;;;;;;17.15;12.02;;;;;;;;;;6251598;23;20004;-78
2022/01/08 03:30:19;;;;;;;17.45;12.70;;;;;;;;;;6225484;23;20024;-77
2022/01/08 03:32:46;;;;;;;17.17;11.88;;;;;;;;;;6224290;23;20507;-76
2022/01/08 03:35:12;;;;;;;19.02;14.50;;;;;;;;;;6250254;23;20114;-77
2022/01/08 03:37:38;;;;;;;17.67;12.77;;;;;;;;;;6250130;23;20007;-80
2022/01/08 03:40:05;;;;;;;17.45;12.85;;;;;;;;;;6223944;23;20027;-81
2022/01/08 03:42:34;;;;;;;18.85;14.13;;;;;;;;;;6248653;23;20000;-80
2022/01/08 03:45:00;;;;;;;18.48;13.25;;;;;;;;;;6247759;23;20007;-83
2022/01/08 03:49:53;;;;;;;25.05;17.08;;;;;;;;;;6257874;23;20012;-77
2022/01/08 03:52:19;;;;;;;21.92;16.88;;;;;;;;;;6247914;23;20000;-79
2022/01/08 03:55:03;;;;;;;22.35;16.58;;;;;;;;;;6247213;23;20000;-81
2022/01/08 03:57:30;;;;;;;20.88;15.50;;;;;;;;;;6248126;23;20370;-79
2022/01/08 03:59:59;;;;;;;21.77;15.48;;;;;;;;;;6248349;23;20007;-76
2022/01/08 04:02:25;;;;;;;22.63;14.25;;;;;;;;;;6248156;23;20327;-78
2022/01/08 04:04:51;;;;;;;26.67;18.77;;;;;;;;;;6248433;23;20004;-80
2022/01/08 04:07:18;;;;;;;43.83;26.10;;;;;;;;;;6249353;23;20000;-78
2022/01/08 04:09:45;;;;;;;55.63;33.88;;;;;;;;;;6222315;23;20039;-77
2022/01/08 04:12:20;;;;;;;30.70;21.48;;;;;;;;;;6249439;23;20019;-80
2022/01/08 04:15:01;;;;;;;20.88;14.93;;;;;;;;;;6248558;23;20000;-79
2022/01/08 04:17:27;;;;;;;20.70;14.45;;;;;;;;;;6222100;23;20068;-82
2022/01/08 04:19:53;;;;;;;19.02;14.50;;;;;;;;;;6250303;23;20423;-81
2022/01/08 04:22:19;;;;;;;20.60;15.02;;;;;;;;;;6249734;23;20054;-77
2022/01/08 04:24:45;;;;;;;19.98;13.88;;;;;;;;;;6250056;23;20007;-78
2022/01/08 04:27:12;;;;;;;36.13;24.65;;;;;;;;;;6249976;23;20000;-79
2022/01/08 04:29:38;;;;;;;39.08;26.90;;;;;;;;;;6248552;23;20007;-82
2022/01/08 04:32:04;;;;;;;36.20;23.80;;;;;;;;;;6251073;23;20004;-78
2022/01/08 04:34:30;;;;;;;24.05;17.25;;;;;;;;;;6249080;23;20008;-76
2022/01/08 04:36:57;;;;;;;23.05;16.60;;;;;;;;;;6250084;23;20006;-81
2022/01/08 04:39:27;;;;;;;30.40;19.70;;;;;;;;;;6216552;23;20062;-79
2022/01/08 04:41:53;;;;;;;25.30;18.70;;;;;;;;;;6219434;23;20004;-78
2022/01/08 04:44:20;;;;;;;25.45;17.77;;;;;;;;;;6218958;23;20011;-79
2022/01/08 04:46:53;;;;;;;24.83;16.75;;;;;;;;;;6219803;23;20055;-78
2022/01/08 04:49:21;;;;;;;26.67;18.10;;;;;;;;;;6219638;23;20035;-79
2022/01/08 04:51:50;;;;;;;26.40;18.48;;;;;;;;;;6219899;23;20000;-78
2022/01/08 04:54:24;;;;;;;27.30;18.60;;;;;;;;;;6219084;23;20455;-81
2022/01/08 04:56:55;;;;;;;27.80;20.07;;;;;;;;;;6219258;23;19997;-77
2022/01/08 05:02:13;;;;;;;33.92;23.05;;;;;;;;;;6218016;23;20036;-77
2022/01/08 05:04:56;;;;;;;;;;;;;;;;;;;;;
2022/01/08 05:07:55;;;;;;;;;;;;;;;;;;;;;
2022/01/08 05:16:55;;;;;;;;;;;;;;;;;;;;;
2022/01/08 05:19:26;;;;;;;16.00;11.43;;;;;;;;;;6214381;23;20072;-80
2022/01/08 05:25:03;;;;;;;22.73;17.10;;;;;;;;;;6208082;23;20004;-83
2022/01/08 05:27:38;;;;;;;24.10;17.48;;;;;;;;;;6216618;23;20001;-80
2022/01/08 05:30:07;;;;;;;22.63;16.95;;;;;;;;;;6216847;23;20432;-80
2022/01/08 05:35:45;;;;;;;22.25;16.85;;;;;;;;;;6207579;23;20005;-83
2022/01/08 05:44:39;;;;;;;20.50;15.70;;;;;;;;;;6140254;23;20025;-82
2022/01/08 05:47:31;;;;;;;22.90;16.52;;;;;;;;;;6154937;23;20006;-81
2022/01/08 05:53:42;;;;;;;;;;;;;;;;;;;;;
2022/01/08 05:56:21;;;;;;;;;;;;;;;;;;;;;
2022/01/08 06:02:11;;;;;;;;;;;;;;;;;;;;;
2022/01/08 06:13:47;;;;;;;20.75;15.95;;;;;;;;;;6192440;23;20031;-81
2022/01/08 06:16:54;;;;;;;25.95;17.80;;;;;;;;;;6215459;23;20013;-82
2022/01/08 06:28:51;;;;;;;;;;;;;;;;;;;;;
2022/01/08 06:31:36;;;;;;;;;;;;;;;;;;;;;
2022/01/08 06:34:18;;;;;;;26.75;18.70;;;;;;;;;;6152831;23;20081;-81
2022/01/08 06:36:47;;;;;;;31.55;21.42;;;;;;;;;;6152401;23;20104;-79
2022/01/08 06:39:14;;;;;;;34.05;23.73;;;;;;;;;;6152045;23;20021;-78
2022/01/08 06:44:46;;;;;;;41.72;29.90;;;;;;;;;;6157078;23;20006;-83
2022/01/08 06:47:33;;;;;;;;;;;;;;;;;;;;;
2022/01/08 06:50:04;;;;;;;53.38;40.15;;;;;;;;;;6201145;23;20036;-82
2022/01/08 06:55:47;;;;;;;58.97;40.30;;;;;;;;;;6213259;23;20455;-84
2022/01/08 07:02:31;;;;;;;73.35;49.40;;;;;;;;;;6205476;23;20004;-83
2022/01/08 07:04:57;;;;;;;69.25;47.55;;;;;;;;;;6205986;23;20008;-82
2022/01/08 07:10:44;;;;;;;48.85;33.35;;;;;;;;;;6171238;23;20016;-81
2022/01/08 07:13:51;;;;;;;54.25;36.08;;;;;;;;;;6214593;23;20047;-82
2022/01/08 07:23:06;;;;;;;;;;;;;;;;;;;;;
2022/01/08 07:34:58;;;;;;;;;;;;;;;;;;;;;
2022/01/08 07:38:15;;;;;;;;;;;;;;;;;;;;;
2022/01/08 07:40:52;;;;;;;;;;;;;;;;;;;;;
2022/01/08 07:43:21;;;;;;;68.07;45.80;;;;;;;;;;6213657;23;20076;-78
2022/01/08 07:45:47;;;;;;;69.45;47.00;;;;;;;;;;6213480;23;20001;-82
2022/01/08 07:48:47;;;;;;;;;;;;;;;;;;;;;
2022/01/08 07:58:21;;;;;;;;;;;;;;;;;;;;;
2022/01/08 08:23:34;;;;;;;49.88;34.95;;;;;;;;;;5952686;24;20076;-79
2022/01/08 08:26:01;;;;;;;61.42;44.85;;;;;;;;;;6023421;23;20019;-73
2022/01/08 08:28:54;;;;;;;;;;;;;;;;;;;;;
2022/01/08 08:31:21;;;;;;;60.45;44.28;;;;;;;;;;6081358;23;20487;-79
2022/01/08 08:34:18;;;;;;;57.35;41.33;;;;;;;;;;6212944;23;20018;-79
2022/01/08 08:42:49;;;;;;;65.68;46.00;;;;;;;;;;6123166;23;20093;-79
2022/01/08 08:48:21;;;;;;;;;;;;;;;;;;;;;
2022/01/08 08:59:47;;;;;;;51.38;37.22;;;;;;;;;;6182123;23;20457;-80
2022/01/08 09:02:33;;;;;;;60.05;43.53;;;;;;;;;;6212220;23;20005;-80
2022/01/08 09:08:28;;;;;;;72.78;55.50;;;;;;;;;;6175081;23;20012;-81
2022/01/08 09:14:27;;;;;;;105.07;77.55;;;;;;;;;;6202654;23;20005;-80
2022/01/08 09:20:37;;;;;;;76.78;54.90;;;;;;;;;;6148882;23;20011;-80
2022/01/08 09:23:41;;;;;;;;;;;;;;;;;;;;;
2022/01/08 09:34:25;;;;;;;;;;;;;;;;;;;;;
2022/01/08 09:37:01;;;;;;;;;;;;;;;;;;;;;
2022/01/08 09:39:47;;;;;;;45.15;31.92;;;;;;;;;;6245313;23;20287;-81
2022/01/08 09:42:46;;;;;;;;;;;;;;;;;;;;;
2022/01/08 09:45:54;;;;;;;41.65;33.42;;;;;;;;;;6194361;23;20083;-79
2022/01/08 09:48:32;;;;;;;;;;;;;;;;;;;;;
2022/01/08 09:50:58;;;;;;;59.70;42.20;;;;;;;;;;6244938;23;20075;-72
2022/01/08 09:53:38;;;;;;;;;;;;;;;;;;;;;
2022/01/08 09:56:34;;;;;;;48.22;36.42;;;;;;;;;;6185777;23;20091;-80
2022/01/08 09:59:10;;;;;;;;;;;;;;;;;;;;;
2022/01/08 10:07:30;;;;;;;47.78;36.13;;;;;;;;;;6244852;23;20026;-80
2022/01/08 10:09:59;;;;;;;47.58;35.95;;;;;;;;;;6244887;23;20006;-80
2022/01/08 10:12:44;;;;;;;46.10;35.20;;;;;;;;;;6244932;23;20004;-82
2022/01/08 10:17:56;;;;;;;36.60;27.23;;;;;;;;;;6245432;23;20394;-81
2022/01/08 10:20:29;;;;;;;37.33;28.52;;;;;;;;;;6218824;23;20355;-80
2022/01/08 10:23:14;;;;;;;44.10;31.67;;;;;;;;;;6245525;23;20004;-82
2022/01/08 10:25:57;;;;;;;42.65;33.33;;;;;;;;;;6218005;23;20077;-82
2022/01/08 10:28:42;;;;;;;38.10;28.67;;;;;;;;;;6245257;23;20024;-83
2022/01/08 10:31:10;;;;;;;35.30;27.35;;;;;;;;;;6246031;23;20008;-82
2022/01/08 10:33:44;;;;;;;36.45;25.55;;;;;;;;;;6245005;23;20023;-83
2022/01/08 10:36:13;;;;;;;34.55;26.50;;;;;;;;;;6245813;23;20001;-83
2022/01/08 10:38:49;;;;;;;40.45;30.48;;;;;;;;;;6218048;23;20331;-82
2022/01/08 10:41:20;;;;;;;56.33;41.85;;;;;;;;;;6245294;23;20103;-83
2022/01/08 10:50:30;;;;;;;;;;;;;;;;;;;;;
2022/01/08 10:53:11;;;;;;;;;;;;;;;;;;;;;
2022/01/08 11:02:11;;;;;;;30.52;22.65;;;;;;;;;;6064263;23;20007;-81
2022/01/08 11:05:16;;;;;;;;;;;;;;;;;;;;;
2022/01/08 11:08:34;;;;;;;;;;;;;;;;;;;;;
2022/01/08 11:20:37;;;;;;;;;;;;;;;;;;;;;
2022/01/08 11:23:34;;;;;;;;;;;;;;;;;;;;;
2022/01/08 11:38:06;;;;;;;;;;;;;;;;;;;;;
2022/01/08 11:43:50;;;;;;;28.80;22.00;;;;;;;;;;6122426;23;20085;-81
2022/01/08 11:46:35;;;;;;;;;;;;;;;;;;;;;
2022/01/08 11:52:34;;;;;;;31.88;23.40;;;;;;;;;;6068646;23;20497;-81
2022/01/08 12:04:46;;;;;;;;;;;;;;;;;;;;;
2022/01/08 12:07:34;;;;;;;30.40;23.95;;;;;;;;;;6065898;23;20419;-80
2022/01/08 12:10:03;;;;;;;29.27;21.00;;;;;;;;;;6131336;23;21029;-81
2022/01/08 12:12:47;;;;;;;24.15;18.30;;;;;;;;;;6153279;23;20061;-81
2022/01/08 12:15:14;;;;;;;25.67;19.08;;;;;;;;;;6220939;23;20091;-81
2022/01/08 12:17:53;;;;;;;27.73;19.00;;;;;;;;;;6246213;23;20447;-81
2022/01/08 12:20:37;;;;;;;25.23;18.17;;;;;;;;;;6246604;23;19996;-81
2022/01/08 12:23:22;;;;;;;24.38;18.98;;;;;;;;;;6246423;23;20075;-81
2022/01/08 12:25:48;;;;;;;30.85;22.50;;;;;;;;;;6246215;23;20058;-80
2022/01/08 12:28:39;;;;;;;33.95;24.38;;;;;;;;;;6246547;23;20008;-80
2022/01/08 12:31:24;;;;;;;46.72;33.55;;;;;;;;;;6220276;23;20040;-81
2022/01/08 12:34:15;;;;;;;40.03;27.35;;;;;;;;;;6246245;23;20016;-81
2022/01/08 12:37:14;;;;;;;45.63;33.80;;;;;;;;;;6246170;23;20043;-81
2022/01/08 12:39:43;;;;;;;108.90;76.82;;;;;;;;;;6180468;23;20016;-81
2022/01/08 12:42:21;;;;;;;51.25;38.90;;;;;;;;;;6246484;23;20305;-81
2022/01/08 12:44:59;;;;;;;46.20;33.85;;;;;;;;;;6246684;23;20004;-80
2022/01/08 12:47:42;;;;;;;41.55;33.30;;;;;;;;;;6246467;23;19999;-81
2022/01/08 12:50:29;;;;;;;49.83;38.17;;;;;;;;;;6219619;23;20004;-81
2022/01/08 12:53:08;;;;;;;48.42;35.45;;;;;;;;;;6246159;23;20424;-80
2022/01/08 12:55:56;;;;;;;46.65;35.25;;;;;;;;;;6183177;23;20108;-81
2022/01/08 12:59:03;;;;;;;51.60;37.63;;;;;;;;;;6123252;23;20353;-81
2022/01/08 13:01:32;;;;;;;57.28;40.13;;;;;;;;;;6098794;23;20088;-80
2022/01/08 13:03:59;;;;;;;57.35;42.08;;;;;;;;;;6099416;23;20378;-81
2022/01/08 13:06:32;;;;;;;54.50;41.15;;;;;;;;;;6123412;23;20017;-82
2022/01/08 13:09:08;;;;;;;55.10;41.67;;;;;;;;;;6099418;23;20006;-81
2022/01/08 13:52:41;;;;;;;49.13;35.90;;;;;;;;;;5856741;24;20063;-77
2022/01/08 14:01:32;;;;;;;43.60;30.92;;;;;;;;;;5869934;24;20012;-78
2022/01/08 14:07:21;;;;;;;53.83;39.53;;;;;;;;;;5896929;24;20013;-80
2022/01/08 14:10:15;;;;;;;82.10;56.08;;;;;;;;;;5875836;24;20437;-80
2022/01/08 14:22:27;;;;;;;86.10;64.63;;;;;;;;;;5897031;24;20016;-80
2022/01/08 14:35:14;;;;;;;;;;;;;;;;;;;;;
2022/01/08 14:54:08;;;;;;;;;;;;;;;;;;;;;
2022/01/08 14:56:34;;;;;;;90.07;68.28;;;;;;;;;;5894907;24;20607;-78
2022/01/08 14:59:30;;;;;;;;;;;;;;;;;;;;;
2022/01/08 15:02:00;;;;;;;81.75;65.57;;;;;;;;;;5928714;24;20087;-78
2022/01/08 15:04:44;;;;;;;66.78;51.20;;;;;;;;;;6055358;23;20004;-78
2022/01/08 15:10:27;;;;;;;79.45;59.75;;;;;;;;;;6245439;23;20792;-76
2022/01/08 15:13:13;;;;;;;79.97;59.78;;;;;;;;;;6244861;23;20079;-79
2022/01/08 15:16:20;;;;;;;75.63;53.78;;;;;;;;;;6244776;23;19996;-78
2022/01/08 15:19:20;;;;;;;;;;;;;;;;;;;;;
2022/01/08 15:25:06;;;;;;;;;;;;;;;;;;;;;
2022/01/08 15:30:28;;;;;;;77.93;56.03;;;;;;;;;;6203428;23;20004;-78
2022/01/08 15:33:12;;;;;;;;;;;;;;;;;;;;;
2022/01/08 15:38:54;;;;;;;;;;;;;;;;;;;;;
2022/01/08 15:44:44;;;;;;;;;;;;;;;;;;;;;
2022/01/08 15:47:31;;;;;;;54.15;38.83;;;;;;;;;;6240699;23;20078;-78
2022/01/08 15:49:57;;;;;;;64.15;48.25;;;;;;;;;;6232737;23;20000;-77
2022/01/08 15:52:26;;;;;;;66.35;51.53;;;;;;;;;;6246442;23;20001;-78
2022/01/08 15:54:52;;;;;;;92.63;67.65;;;;;;;;;;6246551;23;20004;-78
2022/01/08 15:57:18;;;;;;;99.18;72.63;;;;;;;;;;6246179;23;20050;-78
2022/01/08 15:59:45;;;;;;;142.48;110.20;;;;;;;;;;6246692;23;20004;-78
2022/01/08 16:02:11;;;;;;;120.57;94.13;;;;;;;;;;6246260;23;20016;-78
2022/01/08 16:04:46;;;;;;;111.03;83.47;;;;;;;;;;6246277;23;20004;-78
2022/01/08 16:07:30;;;;;;;106.50;78.20;;;;;;;;;;6246351;23;20000;-78
2022/01/08 17:34:12;;;;;;;125.07;91.75;;;;;;;;;;5780004;24;20095;-80
2022/01/08 18:16:45;;;;;;;50.58;39.00;;;;;;;;;;6243171;22;20031;-79
2022/01/08 18:19:12;;;;;;;53.97;44.85;;;;;;;;;;6245336;23;20138;-80
2022/01/08 18:21:38;;;;;;;59.92;45.22;;;;;;;;;;6244983;23;20001;-79
2022/01/08 18:24:06;;;;;;;57.05;42.60;;;;;;;;;;6245443;23;20427;-78
2022/01/08 18:26:35;;;;;;;60.47;43.05;;;;;;;;;;6245094;23;20026;-79
2022/01/08 18:29:01;;;;;;;49.35;35.67;;;;;;;;;;6218486;23;20012;-78
2022/01/08 18:31:27;;;;;;;46.30;32.92;;;;;;;;;;6245067;23;20022;-79
2022/01/08 18:33:54;;;;;;;60.67;42.85;;;;;;;;;;6218428;23;20011;-79
2022/01/08 18:36:28;;;;;;;53.22;37.45;;;;;;;;;;6245221;23;19997;-79
2022/01/08 18:42:33;;;;;;;;;;;;;;;;;;;;;
2022/01/08 18:45:40;;;;;;;;;;;;;;;;;;;;;
2022/01/08 18:48:33;;;;;;;55.30;42.13;;;;;;;;;;6119592;23;20006;-79
2022/01/08 18:54:51;;;;;;;;;;;;;;;;;;;;;
2022/01/08 19:19:25;;;;;;;;;;;;;;;;;;;;;
2022/01/08 19:21:58;;;;;;;116.68;84.47;;;;;;;;;;5774385;24;20095;-76
2022/01/08 19:24:27;;;;;;;138.80;99.80;;;;;;;;;;5799262;24;20361;-76
2022/01/08 19:26:56;;;;;;;151.85;111.65;;;;;;;;;;5995331;23;20029;-76
2022/01/08 19:29:48;;;;;;;163.63;114.47;;;;;;;;;;6183322;23;20029;-78
2022/01/08 20:36:40;;;;;;;72.28;50.60;;;;;;;;;;6230701;23;20027;-77
2022/01/08 20:39:15;;;;;;;59.83;44.97;;;;;;;;;;6246308;23;20020;-81
2022/01/08 20:41:46;;;;;;;84.28;59.33;;;;;;;;;;6246284;23;20440;-77
2022/01/08 20:44:12;;;;;;;83.80;58.97;;;;;;;;;;6245792;23;20000;-77
2022/01/08 20:46:39;;;;;;;85.10;58.03;;;;;;;;;;6246395;23;20004;-78
2022/01/08 20:49:06;;;;;;;66.50;47.80;;;;;;;;;;6246230;23;20002;-79
2022/01/08 20:51:32;;;;;;;67.68;49.30;;;;;;;;;;6246587;23;20006;-79
2022/01/08 20:53:59;;;;;;;64.78;47.05;;;;;;;;;;6246218;23;20482;-77
2022/01/08 20:56:35;;;;;;;71.38;49.35;;;;;;;;;;6245642;23;20015;-77
2022/01/08 20:59:03;;;;;;;76.95;50.78;;;;;;;;;;6246615;23;19996;-77
2022/01/08 21:01:30;;;;;;;73.10;52.75;;;;;;;;;;6219405;23;20015;-80
2022/01/08 21:03:56;;;;;;;73.05;52.17;;;;;;;;;;6245693;23;20007;-74
2022/01/08 21:06:23;;;;;;;72.60;52.25;;;;;;;;;;6245961;23;20022;-77
2022/01/08 21:08:49;;;;;;;72.70;53.42;;;;;;;;;;6246041;23;20079;-78
2022/01/08 21:11:15;;;;;;;81.50;56.88;;;;;;;;;;6218633;23;20337;-82
2022/01/08 21:13:49;;;;;;;77.40;55.40;;;;;;;;;;6246761;23;20012;-81
2022/01/08 21:16:15;;;;;;;80.13;56.95;;;;;;;;;;6246514;23;20036;-78
2022/01/08 21:18:41;;;;;;;117.90;82.20;;;;;;;;;;6219334;23;20004;-79
2022/01/08 21:21:08;;;;;;;99.63;65.57;;;;;;;;;;6245968;23;20004;-76
2022/01/08 21:23:34;;;;;;;89.75;61.60;;;;;;;;;;6219359;23;20004;-78
2022/01/08 21:26:03;;;;;;;98.43;69.60;;;;;;;;;;6246105;23;20007;-76
2022/01/08 21:28:29;;;;;;;97.32;70.00;;;;;;;;;;6246178;23;20004;-81
2022/01/08 21:30:55;;;;;;;103.07;72.97;;;;;;;;;;6246153;23;20008;-79
2022/01/08 21:33:22;;;;;;;98.35;68.82;;;;;;;;;;6246126;23;20050;-79
2022/01/08 21:35:54;;;;;;;82.88;57.33;;;;;;;;;;6245978;23;20004;-79
2022/01/08 21:38:21;;;;;;;69.70;51.15;;;;;;;;;;6245670;23;20023;-75
2022/01/08 21:40:50;;;;;;;63.33;46.72;;;;;;;;;;6246190;23;20008;-78
2022/01/08 21:43:16;;;;;;;67.65;48.20;;;;;;;;;;6246074;23;20007;-77
2022/01/08 21:45:42;;;;;;;76.95;58.22;;;;;;;;;;6245898;23;19996;-81
2022/01/08 21:48:12;;;;;;;95.00;65.60;;;;;;;;;;6245256;23;20046;-82
2022/01/08 21:50:42;;;;;;;92.85;71.15;;;;;;;;;;6245709;23;20305;-79
2022/01/08 21:53:08;;;;;;;85.43;59.70;;;;;;;;;;6218626;23;19996;-79
2022/01/08 21:55:35;;;;;;;61.00;44.25;;;;;;;;;;6218935;23;20394;-76
2022/01/08 21:58:01;;;;;;;52.70;36.92;;;;;;;;;;6245649;23;20007;-77
2022/01/08 22:00:27;;;;;;;53.00;40.47;;;;;;;;;;6245931;23;20012;-79
2022/01/08 22:02:53;;;;;;;49.35;35.47;;;;;;;;;;6219325;23;20059;-81
2022/01/08 22:05:20;;;;;;;48.35;33.75;;;;;;;;;;6245387;23;20371;-83
2022/01/08 22:07:46;;;;;;;101.65;70.65;;;;;;;;;;6245452;23;20008;-79
2022/01/08 22:10:13;;;;;;;80.78;57.63;;;;;;;;;;6245462;23;20000;-77
2022/01/08 22:12:39;;;;;;;81.90;55.42;;;;;;;;;;6245591;23;20471;-79
2022/01/08 22:15:06;;;;;;;76.38;55.97;;;;;;;;;;6245479;23;20126;-80
2022/01/08 22:17:32;;;;;;;72.78;51.25;;;;;;;;;;6245715;23;20000;-78
2022/01/08 22:19:58;;;;;;;62.53;43.70;;;;;;;;;;6245662;23;20007;-77
2022/01/08 22:22:25;;;;;;;63.92;42.90;;;;;;;;;;6245560;23;20066;-77
2022/01/08 22:24:54;;;;;;;69.47;45.88;;;;;;;;;;6245570;23;20008;-77
2022/01/08 22:27:20;;;;;;;57.85;39.17;;;;;;;;;;6245264;23;20000;-80
2022/01/08 22:29:46;;;;;;;46.38;34.05;;;;;;;;;;6218616;23;20004;-80
2022/01/08 22:32:13;;;;;;;44.55;34.35;;;;;;;;;;6244853;23;20010;-79
2022/01/08 22:34:39;;;;;;;47.20;33.03;;;;;;;;;;6244689;23;20026;-79
2022/01/08 22:37:05;;;;;;;43.13;30.80;;;;;;;;;;6217789;23;20111;-78
2022/01/08 22:39:31;;;;;;;43.88;31.00;;;;;;;;;;6245485;23;20011;-81
2022/01/08 22:41:57;;;;;;;40.17;30.10;;;;;;;;;;6245568;23;20007;-77
2022/01/08 22:44:26;;;;;;;46.65;33.10;;;;;;;;;;6245667;23;20007;-75
2022/01/08 22:46:52;;;;;;;42.00;29.52;;;;;;;;;;6244861;23;20008;-80
2022/01/08 22:49:19;;;;;;;44.15;29.63;;;;;;;;;;6244931;23;20058;-79
2022/01/08 22:51:47;;;;;;;45.45;33.08;;;;;;;;;;6245358;23;20344;-78
2022/01/08 22:54:14;;;;;;;46.08;31.40;;;;;;;;;;6218139;23;20474;-80
2022/01/08 22:56:40;;;;;;;41.70;28.67;;;;;;;;;;6245057;23;20003;-83
2022/01/08 22:59:16;;;;;;;;;;;;;;;;;;;;;
2022/01/08 23:01:45;;;;;;;44.00;31.73;;;;;;;;;;6245118;23;20067;-78
2022/01/08 23:04:21;;;;;;;43.28;31.77;;;;;;;;;;6245168;23;20000;-82
2022/01/08 23:06:55;;;;;;;50.33;37.78;;;;;;;;;;6245282;23;20000;-79
2022/01/08 23:09:21;;;;;;;59.38;40.65;;;;;;;;;;6245288;23;20075;-80
2022/01/08 23:11:50;;;;;;;53.72;38.90;;;;;;;;;;6244925;23;20454;-80
2022/01/08 23:14:16;;;;;;;51.55;37.35;;;;;;;;;;6245278;23;20011;-81
2022/01/08 23:16:43;;;;;;;42.35;32.08;;;;;;;;;;6244890;23;20420;-81
2022/01/08 23:19:11;;;;;;;46.88;33.53;;;;;;;;;;6245336;23;19992;-79
2022/01/08 23:21:41;;;;;;;43.53;32.20;;;;;;;;;;6245419;23;20026;-77
2022/01/08 23:24:09;;;;;;;43.90;33.70;;;;;;;;;;6245180;23;20071;-76
2022/01/08 23:26:35;;;;;;;46.05;33.97;;;;;;;;;;6244973;23;20054;-80
2022/01/08 23:29:07;;;;;;;39.95;30.80;;;;;;;;;;6217307;23;20463;-80
2022/01/08 23:31:34;;;;;;;50.50;34.05;;;;;;;;;;6244901;23;20000;-81
2022/01/08 23:34:01;;;;;;;54.28;36.33;;;;;;;;;;6244952;23;20015;-75
2022/01/08 23:36:27;;;;;;;57.42;38.28;;;;;;;;;;6218208;23;20011;-80
2022/01/08 23:38:53;;;;;;;47.35;32.88;;;;;;;;;;6217868;23;20094;-78
2022/01/08 23:41:19;;;;;;;49.50;34.20;;;;;;;;;;6245100;23;20000;-80
2022/01/08 23:43:46;;;;;;;49.08;35.88;;;;;;;;;;6245501;23;20053;-81
2022/01/08 23:46:12;;;;;;;51.97;36.03;;;;;;;;;;6246254;23;20030;-78
2022/01/08 23:48:38;;;;;;;54.97;37.80;;;;;;;;;;6246955;23;20023;-81
2022/01/08 23:51:13;;;;;;;59.50;42.60;;;;;;;;;;6220082;23;20011;-75
2022/01/08 23:53:39;;;;;;;53.60;37.50;;;;;;;;;;6219664;23;20000;-80
2022/01/08 23:56:05;;;;;;;52.55;37.72;;;;;;;;;;6246662;23;20335;-78
2022/01/08 23:58:32;;;;;;;54.80;40.50;;;;;;;;;;6246815;23;20459;-75
